sensor_id;sensor_type;location;lat;lon;timestamp;temperature;humidity
15143;DHT22;7672;50.834;6.286;2022-12-04T00:00:32;4.30;99.90
15143;DHT22;7672;50.834;6.286;2022-12-04T00:02:58;4.30;99.90
15143;DHT22;7672;50.834;6.286;2022-12-04T00:05:25;4.30;99.90
15143;DHT22;7672;50.834;6.286;2022-12-04T00:07:52;4.30;99.90
15143;DHT22;7672;50.834;6.286;2022-12-04T00:10:19;4.30;99.90
15143;DHT22;7672;50.834;6.286;2022-12-04T00:12:46;4.30;99.90
15143;DHT22;7672;50.834;6.286;2022-12-04T00:15:12;4.30;99.90
15143;DHT22;7672;50.834;6.286;2022-12-04T00:17:55;4.30;99.90
15143;DHT22;7672;50.834;6.286;2022-12-04T00:20:22;4.30;99.90
15143;DHT22;7672;50.834;6.286;2022-12-04T00:22:49;4.30;99.90
15143;DHT22;7672;50.834;6.286;2022-12-04T00:25:16;4.30;99.90
15143;DHT22;7672;50.834;6.286;2022-12-04T00:27:43;4.20;99.90
15143;DHT22;7672;50.834;6.286;2022-12-04T00:30:10;4.30;99.90
15143;DHT22;7672;50.834;6.286;2022-12-04T00:32:37;4.20;99.90
15143;DHT22;7672;50.834;6.286;2022-12-04T00:35:04;4.20;99.90
15143;DHT22;7672;50.834;6.286;2022-12-04T00:37:31;4.30;99.90
15143;DHT22;7672;50.834;6.286;2022-12-04T00:39:58;4.30;99.90
15143;DHT22;7672;50.834;6.286;2022-12-04T00:42:25;4.20;99.90
15143;DHT22;7672;50.834;6.286;2022-12-04T00:44:52;4.20;99.90
15143;DHT22;7672;50.834;6.286;2022-12-04T00:47:19;4.20;99.90
15143;DHT22;7672;50.834;6.286;2022-12-04T00:49:46;4.20;99.90
15143;DHT22;7672;50.834;6.286;2022-12-04T00:52:13;4.20;99.90
15143;DHT22;7672;50.834;6.286;2022-12-04T00:54:39;4.30;99.90
15143;DHT22;7672;50.834;6.286;2022-12-04T00:57:06;4.20;99.90
15143;DHT22;7672;50.834;6.286;2022-12-04T00:59:33;4.30;99.90
15143;DHT22;7672;50.834;6.286;2022-12-04T01:02:00;4.30;99.90
15143;DHT22;7672;50.834;6.286;2022-12-04T01:04:27;4.30;99.90
15143;DHT22;7672;50.834;6.286;2022-12-04T01:06:53;4.30;99.90
15143;DHT22;7672;50.834;6.286;2022-12-04T01:09:25;4.30;99.90
15143;DHT22;7672;50.834;6.286;2022-12-04T01:11:52;4.30;99.90
15143;DHT22;7672;50.834;6.286;2022-12-04T01:14:19;4.30;99.90
15143;DHT22;7672;50.834;6.286;2022-12-04T01:16:46;4.30;99.90
15143;DHT22;7672;50.834;6.286;2022-12-04T01:19:12;4.30;99.90
15143;DHT22;7672;50.834;6.286;2022-12-04T01:21:40;4.30;99.90
15143;DHT22;7672;50.834;6.286;2022-12-04T01:24:07;4.30;99.90
15143;DHT22;7672;50.834;6.286;2022-12-04T01:26:34;4.30;99.90
15143;DHT22;7672;50.834;6.286;2022-12-04T01:29:02;4.30;99.90
15143;DHT22;7672;50.834;6.286;2022-12-04T01:31:29;4.20;99.90
15143;DHT22;7672;50.834;6.286;2022-12-04T01:33:57;4.20;99.90
15143;DHT22;7672;50.834;6.286;2022-12-04T01:36:26;4.20;99.90
15143;DHT22;7672;50.834;6.286;2022-12-04T01:38:54;4.20;99.90
15143;DHT22;7672;50.834;6.286;2022-12-04T01:41:25;4.20;99.90
15143;DHT22;7672;50.834;6.286;2022-12-04T01:44:16;4.20;99.90
15143;DHT22;7672;50.834;6.286;2022-12-04T01:46:55;4.20;99.90
15143;DHT22;7672;50.834;6.286;2022-12-04T01:49:42;4.20;99.90
15143;DHT22;7672;50.834;6.286;2022-12-04T01:52:15;4.20;99.90
15143;DHT22;7672;50.834;6.286;2022-12-04T01:54:53;4.20;99.90
15143;DHT22;7672;50.834;6.286;2022-12-04T01:57:26;4.20;99.90
15143;DHT22;7672;50.834;6.286;2022-12-04T02:00:04;4.20;99.90
15143;DHT22;7672;50.834;6.286;2022-12-04T02:02:40;4.20;99.90
15143;DHT22;7672;50.834;6.286;2022-12-04T02:05:12;4.20;99.90
15143;DHT22;7672;50.834;6.286;2022-12-04T02:07:44;4.20;99.90
15143;DHT22;7672;50.834;6.286;2022-12-04T02:10:13;4.20;99.90
15143;DHT22;7672;50.834;6.286;2022-12-04T02:13:04;4.20;99.90
15143;DHT22;7672;50.834;6.286;2022-12-04T02:16:01;4.20;99.90
15143;DHT22;7672;50.834;6.286;2022-12-04T02:18:50;4.20;99.90
15143;DHT22;7672;50.834;6.286;2022-12-04T02:21:39;4.20;99.90
15143;DHT22;7672;50.834;6.286;2022-12-04T02:24:20;4.20;99.90
15143;DHT22;7672;50.834;6.286;2022-12-04T02:27:02;4.20;99.90
15143;DHT22;7672;50.834;6.286;2022-12-04T02:29:40;4.20;99.90
15143;DHT22;7672;50.834;6.286;2022-12-04T02:32:27;4.30;99.90
15143;DHT22;7672;50.834;6.286;2022-12-04T02:35:19;4.30;99.90
15143;DHT22;7672;50.834;6.286;2022-12-04T02:37:57;4.30;99.90
15143;DHT22;7672;50.834;6.286;2022-12-04T02:40:44;4.30;99.90
15143;DHT22;7672;50.834;6.286;2022-12-04T02:43:46;4.30;99.90
15143;DHT22;7672;50.834;6.286;2022-12-04T02:46:24;4.30;99.90
15143;DHT22;7672;50.834;6.286;2022-12-04T02:49:00;4.30;99.90
15143;DHT22;7672;50.834;6.286;2022-12-04T02:51:33;4.30;99.90
15143;DHT22;7672;50.834;6.286;2022-12-04T02:54:08;4.20;99.90
15143;DHT22;7672;50.834;6.286;2022-12-04T02:56:41;4.30;99.90
15143;DHT22;7672;50.834;6.286;2022-12-04T02:59:18;4.30;99.90
15143;DHT22;7672;50.834;6.286;2022-12-04T03:01:52;4.30;99.90
15143;DHT22;7672;50.834;6.286;2022-12-04T03:04:25;4.30;99.90
15143;DHT22;7672;50.834;6.286;2022-12-04T03:06:59;4.20;99.90
15143;DHT22;7672;50.834;6.286;2022-12-04T03:09:35;4.30;99.90
15143;DHT22;7672;50.834;6.286;2022-12-04T03:14:45;4.20;99.90
15143;DHT22;7672;50.834;6.286;2022-12-04T03:17:26;4.20;99.90
15143;DHT22;7672;50.834;6.286;2022-12-04T03:20:02;4.20;99.90
15143;DHT22;7672;50.834;6.286;2022-12-04T03:22:39;4.20;99.90
15143;DHT22;7672;50.834;6.286;2022-12-04T03:25:10;4.20;99.90
15143;DHT22;7672;50.834;6.286;2022-12-04T03:27:51;4.20;99.90
15143;DHT22;7672;50.834;6.286;2022-12-04T03:30:23;4.20;99.90
15143;DHT22;7672;50.834;6.286;2022-12-04T03:35:51;4.10;99.90
15143;DHT22;7672;50.834;6.286;2022-12-04T03:38:40;4.10;99.90
15143;DHT22;7672;50.834;6.286;2022-12-04T03:41:24;4.10;99.90
15143;DHT22;7672;50.834;6.286;2022-12-04T03:47:07;4.10;99.90
15143;DHT22;7672;50.834;6.286;2022-12-04T03:49:56;4.10;99.90
15143;DHT22;7672;50.834;6.286;2022-12-04T03:57:50;4.10;99.90
15143;DHT22;7672;50.834;6.286;2022-12-04T04:00:22;4.10;99.90
15143;DHT22;7672;50.834;6.286;2022-12-04T04:03:00;4.10;99.90
15143;DHT22;7672;50.834;6.286;2022-12-04T04:05:34;4.10;99.90
15143;DHT22;7672;50.834;6.286;2022-12-04T04:08:06;4.10;99.90
15143;DHT22;7672;50.834;6.286;2022-12-04T04:11:07;4.10;99.90
15143;DHT22;7672;50.834;6.286;2022-12-04T04:13:45;4.10;99.90
15143;DHT22;7672;50.834;6.286;2022-12-04T04:16:39;4.10;99.90
15143;DHT22;7672;50.834;6.286;2022-12-04T04:19:33;4.10;99.90
15143;DHT22;7672;50.834;6.286;2022-12-04T04:22:22;4.10;99.90
15143;DHT22;7672;50.834;6.286;2022-12-04T04:25:16;4.10;99.90
15143;DHT22;7672;50.834;6.286;2022-12-04T04:27:53;4.00;99.90
15143;DHT22;7672;50.834;6.286;2022-12-04T04:30:21;4.00;99.90
15143;DHT22;7672;50.834;6.286;2022-12-04T04:32:57;4.00;99.90
15143;DHT22;7672;50.834;6.286;2022-12-04T04:38:46;4.00;99.90
15143;DHT22;7672;50.834;6.286;2022-12-04T04:41:47;4.00;99.90
15143;DHT22;7672;50.834;6.286;2022-12-04T04:44:41;4.00;99.90
15143;DHT22;7672;50.834;6.286;2022-12-04T04:47:20;4.00;99.90
15143;DHT22;7672;50.834;6.286;2022-12-04T04:49:57;4.00;99.90
15143;DHT22;7672;50.834;6.286;2022-12-04T04:52:29;4.00;99.90
15143;DHT22;7672;50.834;6.286;2022-12-04T04:54:58;4.00;99.90
15143;DHT22;7672;50.834;6.286;2022-12-04T04:57:32;4.00;99.90
15143;DHT22;7672;50.834;6.286;2022-12-04T05:00:06;4.00;99.90
15143;DHT22;7672;50.834;6.286;2022-12-04T05:02:36;4.00;99.90
15143;DHT22;7672;50.834;6.286;2022-12-04T05:05:04;4.00;99.90
15143;DHT22;7672;50.834;6.286;2022-12-04T05:07:32;4.00;99.90
15143;DHT22;7672;50.834;6.286;2022-12-04T05:09:59;4.00;99.90
15143;DHT22;7672;50.834;6.286;2022-12-04T05:12:25;4.00;99.90
15143;DHT22;7672;50.834;6.286;2022-12-04T05:14:52;4.00;99.90
15143;DHT22;7672;50.834;6.286;2022-12-04T05:17:19;4.00;99.90
15143;DHT22;7672;50.834;6.286;2022-12-04T05:19:46;4.00;99.90
15143;DHT22;7672;50.834;6.286;2022-12-04T05:22:24;3.90;99.90
15143;DHT22;7672;50.834;6.286;2022-12-04T05:24:52;3.90;99.90
15143;DHT22;7672;50.834;6.286;2022-12-04T05:27:21;3.90;99.90
15143;DHT22;7672;50.834;6.286;2022-12-04T05:29:53;3.90;99.90
15143;DHT22;7672;50.834;6.286;2022-12-04T05:32:24;3.90;99.90
15143;DHT22;7672;50.834;6.286;2022-12-04T05:34:54;3.90;99.90
15143;DHT22;7672;50.834;6.286;2022-12-04T05:37:23;3.90;99.90
15143;DHT22;7672;50.834;6.286;2022-12-04T05:39:50;3.90;99.90
15143;DHT22;7672;50.834;6.286;2022-12-04T05:42:17;3.90;99.90
15143;DHT22;7672;50.834;6.286;2022-12-04T05:44:44;3.80;99.90
15143;DHT22;7672;50.834;6.286;2022-12-04T05:47:11;3.80;99.90
15143;DHT22;7672;50.834;6.286;2022-12-04T05:49:38;3.80;99.90
15143;DHT22;7672;50.834;6.286;2022-12-04T05:52:05;3.80;99.90
15143;DHT22;7672;50.834;6.286;2022-12-04T05:54:32;3.80;99.90
15143;DHT22;7672;50.834;6.286;2022-12-04T05:56:59;3.70;99.90
15143;DHT22;7672;50.834;6.286;2022-12-04T05:59:26;3.70;99.90
15143;DHT22;7672;50.834;6.286;2022-12-04T06:01:53;3.70;99.90
15143;DHT22;7672;50.834;6.286;2022-12-04T06:04:20;3.70;99.90
15143;DHT22;7672;50.834;6.286;2022-12-04T06:06:47;3.70;99.90
15143;DHT22;7672;50.834;6.286;2022-12-04T06:09:14;3.70;99.90
15143;DHT22;7672;50.834;6.286;2022-12-04T06:11:41;3.70;99.90
15143;DHT22;7672;50.834;6.286;2022-12-04T06:14:12;3.60;99.90
15143;DHT22;7672;50.834;6.286;2022-12-04T06:16:42;3.70;99.90
15143;DHT22;7672;50.834;6.286;2022-12-04T06:19:16;3.60;99.90
15143;DHT22;7672;50.834;6.286;2022-12-04T06:21:47;3.60;99.90
15143;DHT22;7672;50.834;6.286;2022-12-04T06:24:22;3.60;99.90
15143;DHT22;7672;50.834;6.286;2022-12-04T06:26:50;3.60;99.90
15143;DHT22;7672;50.834;6.286;2022-12-04T06:29:41;3.60;99.90
15143;DHT22;7672;50.834;6.286;2022-12-04T06:32:07;3.50;99.90
15143;DHT22;7672;50.834;6.286;2022-12-04T06:34:34;3.50;99.90
15143;DHT22;7672;50.834;6.286;2022-12-04T06:37:02;3.50;99.90
15143;DHT22;7672;50.834;6.286;2022-12-04T06:39:29;3.50;99.90
15143;DHT22;7672;50.834;6.286;2022-12-04T06:41:55;3.50;99.90
15143;DHT22;7672;50.834;6.286;2022-12-04T06:44:22;3.40;99.90
15143;DHT22;7672;50.834;6.286;2022-12-04T06:46:49;3.40;99.90
15143;DHT22;7672;50.834;6.286;2022-12-04T06:49:16;3.40;99.90
15143;DHT22;7672;50.834;6.286;2022-12-04T06:51:43;3.40;99.90
15143;DHT22;7672;50.834;6.286;2022-12-04T06:54:12;3.40;99.90
15143;DHT22;7672;50.834;6.286;2022-12-04T06:56:39;3.30;99.90
15143;DHT22;7672;50.834;6.286;2022-12-04T06:59:06;3.30;99.90
15143;DHT22;7672;50.834;6.286;2022-12-04T07:01:33;3.30;99.90
15143;DHT22;7672;50.834;6.286;2022-12-04T07:04:01;3.40;99.90
15143;DHT22;7672;50.834;6.286;2022-12-04T07:06:32;3.40;99.90
15143;DHT22;7672;50.834;6.286;2022-12-04T07:11:38;3.40;99.90
15143;DHT22;7672;50.834;6.286;2022-12-04T07:14:06;3.30;99.90
15143;DHT22;7672;50.834;6.286;2022-12-04T07:16:34;3.40;99.90
15143;DHT22;7672;50.834;6.286;2022-12-04T07:19:07;3.30;99.90
15143;DHT22;7672;50.834;6.286;2022-12-04T07:21:38;3.40;99.90
15143;DHT22;7672;50.834;6.286;2022-12-04T07:24:06;3.40;99.90
15143;DHT22;7672;50.834;6.286;2022-12-04T07:26:32;3.40;99.90
15143;DHT22;7672;50.834;6.286;2022-12-04T07:28:59;3.40;99.90
15143;DHT22;7672;50.834;6.286;2022-12-04T07:31:27;3.30;99.90
15143;DHT22;7672;50.834;6.286;2022-12-04T07:33:56;3.30;99.90
15143;DHT22;7672;50.834;6.286;2022-12-04T07:36:25;3.30;99.90
15143;DHT22;7672;50.834;6.286;2022-12-04T07:38:54;3.30;99.90
15143;DHT22;7672;50.834;6.286;2022-12-04T07:41:22;3.30;99.90
15143;DHT22;7672;50.834;6.286;2022-12-04T07:43:49;3.30;99.90
15143;DHT22;7672;50.834;6.286;2022-12-04T07:46:18;3.20;99.90
15143;DHT22;7672;50.834;6.286;2022-12-04T07:48:47;3.20;99.90
15143;DHT22;7672;50.834;6.286;2022-12-04T07:51:20;3.20;99.90
15143;DHT22;7672;50.834;6.286;2022-12-04T07:53:49;3.20;99.90
15143;DHT22;7672;50.834;6.286;2022-12-04T07:56:19;3.20;99.90
15143;DHT22;7672;50.834;6.286;2022-12-04T07:58:46;3.10;99.90
15143;DHT22;7672;50.834;6.286;2022-12-04T08:01:16;3.10;99.90
15143;DHT22;7672;50.834;6.286;2022-12-04T08:03:49;3.00;99.90
15143;DHT22;7672;50.834;6.286;2022-12-04T08:06:20;3.00;99.90
15143;DHT22;7672;50.834;6.286;2022-12-04T08:08:48;3.00;99.90
15143;DHT22;7672;50.834;6.286;2022-12-04T08:11:18;3.00;99.90
15143;DHT22;7672;50.834;6.286;2022-12-04T08:13:52;3.00;99.90
15143;DHT22;7672;50.834;6.286;2022-12-04T08:16:24;3.00;99.90
15143;DHT22;7672;50.834;6.286;2022-12-04T08:18:52;3.00;99.90
15143;DHT22;7672;50.834;6.286;2022-12-04T08:21:22;3.00;99.90
15143;DHT22;7672;50.834;6.286;2022-12-04T08:23:51;3.00;99.90
15143;DHT22;7672;50.834;6.286;2022-12-04T08:26:21;3.00;99.90
15143;DHT22;7672;50.834;6.286;2022-12-04T08:28:54;3.00;99.90
15143;DHT22;7672;50.834;6.286;2022-12-04T08:31:24;3.00;99.90
15143;DHT22;7672;50.834;6.286;2022-12-04T08:33:55;3.00;99.90
15143;DHT22;7672;50.834;6.286;2022-12-04T08:36:23;3.00;99.90
15143;DHT22;7672;50.834;6.286;2022-12-04T08:38:51;3.00;99.90
15143;DHT22;7672;50.834;6.286;2022-12-04T08:41:20;3.00;99.90
15143;DHT22;7672;50.834;6.286;2022-12-04T08:43:50;3.00;99.90
15143;DHT22;7672;50.834;6.286;2022-12-04T08:46:22;3.00;99.90
15143;DHT22;7672;50.834;6.286;2022-12-04T08:48:51;3.00;99.90
15143;DHT22;7672;50.834;6.286;2022-12-04T08:51:20;3.00;99.90
15143;DHT22;7672;50.834;6.286;2022-12-04T08:54:00;3.00;99.90
15143;DHT22;7672;50.834;6.286;2022-12-04T08:56:30;3.00;99.90
15143;DHT22;7672;50.834;6.286;2022-12-04T08:58:59;3.00;99.90
15143;DHT22;7672;50.834;6.286;2022-12-04T09:01:27;3.00;99.90
15143;DHT22;7672;50.834;6.286;2022-12-04T09:03:56;3.00;99.90
15143;DHT22;7672;50.834;6.286;2022-12-04T09:06:23;3.00;99.90
15143;DHT22;7672;50.834;6.286;2022-12-04T09:08:54;3.00;99.90
15143;DHT22;7672;50.834;6.286;2022-12-04T09:11:24;3.00;99.90
15143;DHT22;7672;50.834;6.286;2022-12-04T09:13:52;3.10;99.90
15143;DHT22;7672;50.834;6.286;2022-12-04T09:16:21;3.10;99.90
15143;DHT22;7672;50.834;6.286;2022-12-04T09:18:50;3.10;99.90
15143;DHT22;7672;50.834;6.286;2022-12-04T09:21:18;3.10;99.90
15143;DHT22;7672;50.834;6.286;2022-12-04T09:23:47;3.10;99.90
15143;DHT22;7672;50.834;6.286;2022-12-04T09:28:55;3.10;99.90
15143;DHT22;7672;50.834;6.286;2022-12-04T09:31:24;3.10;99.90
15143;DHT22;7672;50.834;6.286;2022-12-04T09:33:52;3.10;99.90
15143;DHT22;7672;50.834;6.286;2022-12-04T09:36:19;3.10;99.90
15143;DHT22;7672;50.834;6.286;2022-12-04T09:38:49;3.00;99.90
15143;DHT22;7672;50.834;6.286;2022-12-04T09:46:58;3.00;99.90
15143;DHT22;7672;50.834;6.286;2022-12-04T09:49:42;3.00;99.90
15143;DHT22;7672;50.834;6.286;2022-12-04T09:52:28;3.00;99.90
15143;DHT22;7672;50.834;6.286;2022-12-04T09:55:21;3.00;99.90
15143;DHT22;7672;50.834;6.286;2022-12-04T09:57:54;2.90;99.90
15143;DHT22;7672;50.834;6.286;2022-12-04T10:00:29;3.00;99.90
15143;DHT22;7672;50.834;6.286;2022-12-04T10:03:09;3.00;99.90
15143;DHT22;7672;50.834;6.286;2022-12-04T10:08:53;3.00;99.90
15143;DHT22;7672;50.834;6.286;2022-12-04T10:11:38;3.00;99.90
15143;DHT22;7672;50.834;6.286;2022-12-04T10:14:29;3.00;99.90
15143;DHT22;7672;50.834;6.286;2022-12-04T10:17:31;2.90;99.90
15143;DHT22;7672;50.834;6.286;2022-12-04T10:26:15;2.90;99.90
15143;DHT22;7672;50.834;6.286;2022-12-04T10:28:50;2.90;99.90
15143;DHT22;7672;50.834;6.286;2022-12-04T10:31:22;2.90;99.90
15143;DHT22;7672;50.834;6.286;2022-12-04T10:34:17;2.90;99.90
15143;DHT22;7672;50.834;6.286;2022-12-04T10:36:52;2.90;99.90
15143;DHT22;7672;50.834;6.286;2022-12-04T10:39:25;3.50;99.90
15143;DHT22;7672;50.834;6.286;2022-12-04T10:45:03;2.90;99.90
15143;DHT22;7672;50.834;6.286;2022-12-04T10:47:32;2.90;99.90
15143;DHT22;7672;50.834;6.286;2022-12-04T10:50:03;2.90;99.90
15143;DHT22;7672;50.834;6.286;2022-12-04T10:52:38;2.90;99.90
15143;DHT22;7672;50.834;6.286;2022-12-04T10:55:05;3.50;99.90
15143;DHT22;7672;50.834;6.286;2022-12-04T10:57:44;2.90;99.90
15143;DHT22;7672;50.834;6.286;2022-12-04T11:02:55;3.00;99.90
15143;DHT22;7672;50.834;6.286;2022-12-04T11:05:35;3.00;99.90
15143;DHT22;7672;50.834;6.286;2022-12-04T11:08:06;3.10;99.90
15143;DHT22;7672;50.834;6.286;2022-12-04T11:10:36;3.10;99.90
15143;DHT22;7672;50.834;6.286;2022-12-04T11:13:15;3.20;99.90
15143;DHT22;7672;50.834;6.286;2022-12-04T11:15:45;3.20;99.90
15143;DHT22;7672;50.834;6.286;2022-12-04T11:18:32;3.30;99.90
15143;DHT22;7672;50.834;6.286;2022-12-04T11:21:11;3.30;99.90
15143;DHT22;7672;50.834;6.286;2022-12-04T11:23:47;3.40;99.90
15143;DHT22;7672;50.834;6.286;2022-12-04T11:26:36;3.40;99.90
15143;DHT22;7672;50.834;6.286;2022-12-04T11:29:13;3.40;99.90
15143;DHT22;7672;50.834;6.286;2022-12-04T11:31:50;3.40;99.90
15143;DHT22;7672;50.834;6.286;2022-12-04T11:34:24;3.40;99.90
15143;DHT22;7672;50.834;6.286;2022-12-04T11:36:59;3.50;99.90
15143;DHT22;7672;50.834;6.286;2022-12-04T11:39:35;3.50;99.90
15143;DHT22;7672;50.834;6.286;2022-12-04T11:42:16;3.40;99.90
15143;DHT22;7672;50.834;6.286;2022-12-04T11:47:23;3.40;99.90
15143;DHT22;7672;50.834;6.286;2022-12-04T11:55:44;3.40;99.90
15143;DHT22;7672;50.834;6.286;2022-12-04T11:59:06;3.40;99.90
15143;DHT22;7672;50.834;6.286;2022-12-04T12:01:48;3.40;99.90
15143;DHT22;7672;50.834;6.286;2022-12-04T12:20:23;3.30;99.90
15143;DHT22;7672;50.834;6.286;2022-12-04T12:23:12;3.30;99.90
15143;DHT22;7672;50.834;6.286;2022-12-04T12:28:37;3.30;99.90
15143;DHT22;7672;50.834;6.286;2022-12-04T12:37:24;3.30;99.90
15143;DHT22;7672;50.834;6.286;2022-12-04T12:42:52;3.30;99.90
15143;DHT22;7672;50.834;6.286;2022-12-04T12:45:29;3.30;99.90
15143;DHT22;7672;50.834;6.286;2022-12-04T12:48:15;3.40;99.90
15143;DHT22;7672;50.834;6.286;2022-12-04T12:51:32;3.40;99.90
15143;DHT22;7672;50.834;6.286;2022-12-04T12:54:40;3.40;99.90
15143;DHT22;7672;50.834;6.286;2022-12-04T12:57:16;3.40;99.90
15143;DHT22;7672;50.834;6.286;2022-12-04T13:00:03;3.40;99.90
15143;DHT22;7672;50.834;6.286;2022-12-04T13:03:27;3.40;99.90
15143;DHT22;7672;50.834;6.286;2022-12-04T13:06:27;3.40;99.90
15143;DHT22;7672;50.834;6.286;2022-12-04T13:09:31;3.40;99.90
15143;DHT22;7672;50.834;6.286;2022-12-04T13:12:11;3.50;99.90
15143;DHT22;7672;50.834;6.286;2022-12-04T13:14:42;4.00;99.90
15143;DHT22;7672;50.834;6.286;2022-12-04T13:17:26;3.50;99.90
15143;DHT22;7672;50.834;6.286;2022-12-04T13:20:04;3.50;99.90
15143;DHT22;7672;50.834;6.286;2022-12-04T13:35:34;3.60;99.90
15143;DHT22;7672;50.834;6.286;2022-12-04T13:38:50;3.60;99.90
15143;DHT22;7672;50.834;6.286;2022-12-04T13:42:01;3.70;99.90
15143;DHT22;7672;50.834;6.286;2022-12-04T13:45:11;3.70;99.90
15143;DHT22;7672;50.834;6.286;2022-12-04T13:48:26;3.80;99.90
15143;DHT22;7672;50.834;6.286;2022-12-04T13:51:33;3.80;99.90
15143;DHT22;7672;50.834;6.286;2022-12-04T13:54:35;3.80;99.90
15143;DHT22;7672;50.834;6.286;2022-12-04T13:57:29;3.80;99.90
15143;DHT22;7672;50.834;6.286;2022-12-04T14:00:24;3.80;99.90
15143;DHT22;7672;50.834;6.286;2022-12-04T14:03:23;3.80;99.90
15143;DHT22;7672;50.834;6.286;2022-12-04T14:05:53;3.80;99.90
15143;DHT22;7672;50.834;6.286;2022-12-04T14:08:24;3.80;99.90
15143;DHT22;7672;50.834;6.286;2022-12-04T14:11:11;3.80;99.90
15143;DHT22;7672;50.834;6.286;2022-12-04T14:13:50;3.80;99.90
15143;DHT22;7672;50.834;6.286;2022-12-04T14:16:33;4.30;99.90
15143;DHT22;7672;50.834;6.286;2022-12-04T14:19:04;4.20;99.90
15143;DHT22;7672;50.834;6.286;2022-12-04T14:21:40;4.00;99.90
15143;DHT22;7672;50.834;6.286;2022-12-04T14:24:27;3.80;99.90
15143;DHT22;7672;50.834;6.286;2022-12-04T14:30:19;3.70;99.90
15143;DHT22;7672;50.834;6.286;2022-12-04T14:32:59;3.80;99.90
15143;DHT22;7672;50.834;6.286;2022-12-04T14:35:53;3.70;99.90
15143;DHT22;7672;50.834;6.286;2022-12-04T14:38:26;3.80;99.90
15143;DHT22;7672;50.834;6.286;2022-12-04T14:40:55;3.80;99.90
15143;DHT22;7672;50.834;6.286;2022-12-04T14:43:38;3.80;99.90
15143;DHT22;7672;50.834;6.286;2022-12-04T14:46:34;3.80;99.90
15143;DHT22;7672;50.834;6.286;2022-12-04T14:52:58;3.80;99.90
15143;DHT22;7672;50.834;6.286;2022-12-04T14:58:37;3.70;99.90
15143;DHT22;7672;50.834;6.286;2022-12-04T15:01:26;3.70;99.90
15143;DHT22;7672;50.834;6.286;2022-12-04T15:04:08;3.70;99.90
15143;DHT22;7672;50.834;6.286;2022-12-04T15:06:40;3.90;99.90
15143;DHT22;7672;50.834;6.286;2022-12-04T15:09:16;3.70;99.90
15143;DHT22;7672;50.834;6.286;2022-12-04T15:12:22;3.70;99.90
15143;DHT22;7672;50.834;6.286;2022-12-04T15:26:03;3.70;99.90
15143;DHT22;7672;50.834;6.286;2022-12-04T15:28:55;3.70;99.90
15143;DHT22;7672;50.834;6.286;2022-12-04T15:31:28;3.80;99.90
15143;DHT22;7672;50.834;6.286;2022-12-04T15:34:04;3.80;99.90
15143;DHT22;7672;50.834;6.286;2022-12-04T15:36:47;3.90;99.90
15143;DHT22;7672;50.834;6.286;2022-12-04T15:39:18;3.90;99.90
15143;DHT22;7672;50.834;6.286;2022-12-04T15:41:48;3.90;99.90
15143;DHT22;7672;50.834;6.286;2022-12-04T15:44:34;3.90;99.90
15143;DHT22;7672;50.834;6.286;2022-12-04T15:47:15;4.00;99.90
15143;DHT22;7672;50.834;6.286;2022-12-04T15:49:45;4.00;99.90
15143;DHT22;7672;50.834;6.286;2022-12-04T15:52:17;4.00;99.90
15143;DHT22;7672;50.834;6.286;2022-12-04T15:54:56;4.00;99.90
15143;DHT22;7672;50.834;6.286;2022-12-04T15:57:35;4.00;99.90
15143;DHT22;7672;50.834;6.286;2022-12-04T16:00:21;4.00;99.90
15143;DHT22;7672;50.834;6.286;2022-12-04T16:02:51;4.00;99.90
15143;DHT22;7672;50.834;6.286;2022-12-04T16:07:51;4.00;99.90
15143;DHT22;7672;50.834;6.286;2022-12-04T16:10:25;4.10;99.90
15143;DHT22;7672;50.834;6.286;2022-12-04T16:12:54;4.10;99.90
15143;DHT22;7672;50.834;6.286;2022-12-04T16:15:23;4.20;99.90
15143;DHT22;7672;50.834;6.286;2022-12-04T16:17:53;4.20;99.90
15143;DHT22;7672;50.834;6.286;2022-12-04T16:20:19;4.20;99.90
15143;DHT22;7672;50.834;6.286;2022-12-04T16:22:50;4.20;99.90
15143;DHT22;7672;50.834;6.286;2022-12-04T16:25:19;4.20;99.90
15143;DHT22;7672;50.834;6.286;2022-12-04T16:27:46;4.30;99.90
15143;DHT22;7672;50.834;6.286;2022-12-04T16:30:13;4.30;99.90
15143;DHT22;7672;50.834;6.286;2022-12-04T16:32:40;4.30;99.90
15143;DHT22;7672;50.834;6.286;2022-12-04T16:35:12;4.30;99.90
15143;DHT22;7672;50.834;6.286;2022-12-04T16:37:42;4.40;99.90
15143;DHT22;7672;50.834;6.286;2022-12-04T16:40:13;4.40;99.90
15143;DHT22;7672;50.834;6.286;2022-12-04T16:42:41;4.40;99.90
15143;DHT22;7672;50.834;6.286;2022-12-04T16:47:55;4.40;99.90
15143;DHT22;7672;50.834;6.286;2022-12-04T16:50:24;4.40;99.90
15143;DHT22;7672;50.834;6.286;2022-12-04T16:52:52;4.40;99.90
15143;DHT22;7672;50.834;6.286;2022-12-04T16:55:37;4.40;99.90
15143;DHT22;7672;50.834;6.286;2022-12-04T16:58:05;4.40;99.90
15143;DHT22;7672;50.834;6.286;2022-12-04T17:00:33;4.40;99.90
15143;DHT22;7672;50.834;6.286;2022-12-04T17:03:02;4.40;99.90
15143;DHT22;7672;50.834;6.286;2022-12-04T17:05:31;4.40;99.90
15143;DHT22;7672;50.834;6.286;2022-12-04T17:08:01;4.30;99.90
15143;DHT22;7672;50.834;6.286;2022-12-04T17:10:28;4.30;99.90
15143;DHT22;7672;50.834;6.286;2022-12-04T17:12:55;4.30;99.90
15143;DHT22;7672;50.834;6.286;2022-12-04T17:15:22;4.30;99.90
15143;DHT22;7672;50.834;6.286;2022-12-04T17:17:49;4.40;99.90
15143;DHT22;7672;50.834;6.286;2022-12-04T17:20:17;4.40;99.90
15143;DHT22;7672;50.834;6.286;2022-12-04T17:22:46;4.40;99.90
15143;DHT22;7672;50.834;6.286;2022-12-04T17:25:14;4.40;99.90
15143;DHT22;7672;50.834;6.286;2022-12-04T17:27:41;4.40;99.90
15143;DHT22;7672;50.834;6.286;2022-12-04T17:30:09;4.40;99.90
15143;DHT22;7672;50.834;6.286;2022-12-04T17:32:37;4.40;99.90
15143;DHT22;7672;50.834;6.286;2022-12-04T17:35:05;4.40;99.90
15143;DHT22;7672;50.834;6.286;2022-12-04T17:37:34;4.40;99.90
15143;DHT22;7672;50.834;6.286;2022-12-04T17:40:01;4.40;99.90
15143;DHT22;7672;50.834;6.286;2022-12-04T17:42:28;4.80;99.90
15143;DHT22;7672;50.834;6.286;2022-12-04T17:44:55;4.50;99.90
15143;DHT22;7672;50.834;6.286;2022-12-04T17:47:22;4.50;99.90
15143;DHT22;7672;50.834;6.286;2022-12-04T17:49:49;4.50;99.90
15143;DHT22;7672;50.834;6.286;2022-12-04T17:52:17;4.50;99.90
15143;DHT22;7672;50.834;6.286;2022-12-04T17:54:49;4.50;99.90
15143;DHT22;7672;50.834;6.286;2022-12-04T17:57:17;4.50;99.90
15143;DHT22;7672;50.834;6.286;2022-12-04T17:59:44;4.50;99.90
15143;DHT22;7672;50.834;6.286;2022-12-04T18:02:11;4.60;99.90
15143;DHT22;7672;50.834;6.286;2022-12-04T18:04:39;4.60;99.90
15143;DHT22;7672;50.834;6.286;2022-12-04T18:07:06;4.60;99.90
15143;DHT22;7672;50.834;6.286;2022-12-04T18:09:33;4.60;99.90
15143;DHT22;7672;50.834;6.286;2022-12-04T18:12:00;4.60;99.90
15143;DHT22;7672;50.834;6.286;2022-12-04T18:14:28;4.70;99.90
15143;DHT22;7672;50.834;6.286;2022-12-04T18:16:56;4.70;99.90
15143;DHT22;7672;50.834;6.286;2022-12-04T18:19:26;4.70;99.90
15143;DHT22;7672;50.834;6.286;2022-12-04T18:21:54;4.70;99.90
15143;DHT22;7672;50.834;6.286;2022-12-04T18:24:23;4.70;99.90
15143;DHT22;7672;50.834;6.286;2022-12-04T18:26:51;4.70;99.90
15143;DHT22;7672;50.834;6.286;2022-12-04T18:29:22;4.70;99.90
15143;DHT22;7672;50.834;6.286;2022-12-04T18:31:51;4.70;99.90
15143;DHT22;7672;50.834;6.286;2022-12-04T18:34:19;4.70;99.90
15143;DHT22;7672;50.834;6.286;2022-12-04T18:36:47;4.70;99.90
15143;DHT22;7672;50.834;6.286;2022-12-04T18:39:17;4.70;99.90
15143;DHT22;7672;50.834;6.286;2022-12-04T18:41:49;4.70;99.90
15143;DHT22;7672;50.834;6.286;2022-12-04T18:44:16;4.70;99.90
15143;DHT22;7672;50.834;6.286;2022-12-04T18:46:43;4.70;99.90